WXForecasting.com
Harvey, MI - Weather Station Data
 
Daily Summary for October 25, 2014 Units:  English    Metric   Both
« Previous Day
Next Day »
Daily Weekly Monthly Yearly Custom
  Current: High: Low: Average:
Temperature: 53.8 °F 61.4 °F 50.5 °F 55.5 °F
Dew Point: 32.0 °F 50.0 °F 32.0 °F 41.9 °F
Humidity: 44% 86% 35% 63%
Wind Speed: 1.0mph 9.0mph 0.0mph 2.4mph
Wind Gust: 7.0mph 16.0mph - -
WindNW - - West
Pressure: 29.72 in 29.72 in 29.61 in -
Precipitation: 0.00 in      
Historical Graphs
 
 
Tabular Data for October 25, 2014
Time Temp Dew Point Pressure Wind Wind Speed Wind Gust RH Rain Rate/Hour
00:14 52.8 °F 48.0 °F 29.65 in SW 5.0 mph 8.0 mph 85% 0.00 in
00:29 52.8 °F 48.0 °F 29.65 in Calm   11.0 mph 85% 0.00 in
00:44 53.0 °F 49.0 °F 29.64 in SSW 3.0 mph 10.0 mph 85% 0.00 in
00:59 53.5 °F 49.0 °F 29.63 in SE 2.0 mph 10.0 mph 85% 0.00 in
01:14 53.4 °F 49.0 °F 29.63 in South 3.0 mph 9.0 mph 85% 0.00 in
01:29 53.2 °F 49.0 °F 29.62 in South 2.0 mph 9.0 mph 85% 0.00 in
01:44 53.1 °F 49.0 °F 29.62 in SSW 4.0 mph 6.0 mph 85% 0.00 in
01:59 53.0 °F 49.0 °F 29.62 in South 1.0 mph 6.0 mph 86% 0.00 in
02:14 53.1 °F 49.0 °F 29.62 in SSW 5.0 mph 7.0 mph 86% 0.00 in
02:29 53.1 °F 49.0 °F 29.61 in South 2.0 mph 8.0 mph 86% 0.00 in
02:44 53.5 °F 50.0 °F 29.61 in SSW 1.0 mph 8.0 mph 86% 0.00 in
02:59 53.5 °F 50.0 °F 29.62 in South 6.0 mph 6.0 mph 86% 0.00 in
03:14 53.6 °F 49.0 °F 29.62 in South 2.0 mph 6.0 mph 85% 0.00 in
03:29 53.8 °F 49.0 °F 29.61 in SSW 2.0 mph 7.0 mph 85% 0.00 in
03:44 54.6 °F 50.0 °F 29.61 in Calm   9.0 mph 84% 0.00 in
03:59 54.4 °F 50.0 °F 29.61 in Calm   7.0 mph 84% 0.00 in
04:14 53.8 °F 49.0 °F 29.61 in Calm   2.0 mph 84% 0.00 in
04:29 53.2 °F 49.0 °F 29.61 in South 2.0 mph 2.0 mph 84% 0.00 in
04:44 54.1 °F 49.0 °F 29.61 in Calm   2.0 mph 82% 0.00 in
04:59 54.4 °F 48.0 °F 29.61 in West 1.0 mph 2.0 mph 80% 0.00 in
05:14 55.1 °F 48.0 °F 29.62 in Calm   10.0 mph 77% 0.00 in
05:29 55.1 °F 48.0 °F 29.62 in Calm   2.0 mph 76% 0.00 in
05:44 55.0 °F 47.0 °F 29.62 in WNW 1.0 mph 4.0 mph 74% 0.00 in
05:59 55.1 °F 46.0 °F 29.62 in WNW 1.0 mph 3.0 mph 72% 0.00 in
06:14 54.5 °F 45.0 °F 29.63 in Calm   3.0 mph 71% 0.00 in
06:29 53.6 °F 44.0 °F 29.62 in Calm   2.0 mph 70% 0.00 in
06:44 52.8 °F 44.0 °F 29.62 in WNW 1.0 mph 1.0 mph 71% 0.00 in
06:59 51.8 °F 43.0 °F 29.62 in Calm   1.0 mph 73% 0.00 in
07:15 51.0 °F 43.0 °F 29.62 in Calm   1.0 mph 73% 0.00 in
07:30 50.5 °F 42.0 °F 29.61 in Calm   1.0 mph 73% 0.00 in
07:45 51.5 °F 42.0 °F 29.61 in NW 3.0 mph 5.0 mph 71% 0.00 in
08:00 53.0 °F 42.0 °F 29.62 in WNW 3.0 mph 9.0 mph 67% 0.00 in
08:15 54.3 °F 41.0 °F 29.62 in Calm   7.0 mph 62% 0.00 in
08:30 53.9 °F 41.0 °F 29.62 in WNW 2.0 mph 5.0 mph 61% 0.00 in
08:45 53.9 °F 41.0 °F 29.62 in WNW 1.0 mph 4.0 mph 61% 0.00 in
09:00 53.7 °F 40.0 °F 29.63 in Calm   5.0 mph 60% 0.00 in
09:15 53.6 °F 39.0 °F 29.64 in WNW 3.0 mph 8.0 mph 59% 0.00 in
09:30 54.4 °F 38.0 °F 29.64 in WNW 3.0 mph 4.0 mph 55% 0.00 in
09:45 55.3 °F 39.0 °F 29.64 in NW 4.0 mph 5.0 mph 54% 0.00 in
10:00 55.9 °F 38.0 °F 29.64 in NW 2.0 mph 9.0 mph 52% 0.00 in
10:15 56.3 °F 39.0 °F 29.64 in WNW 2.0 mph 12.0 mph 52% 0.00 in
10:30 56.5 °F 38.0 °F 29.64 in West 7.0 mph 11.0 mph 50% 0.00 in
10:45 56.7 °F 38.0 °F 29.64 in NW 2.0 mph 14.0 mph 50% 0.00 in
11:00 57.0 °F 38.0 °F 29.64 in NW 3.0 mph 13.0 mph 49% 0.00 in
11:15 57.6 °F 38.0 °F 29.65 in West 1.0 mph 9.0 mph 49% 0.00 in
11:30 58.2 °F 40.0 °F 29.65 in North 2.0 mph 10.0 mph 51% 0.00 in
11:45 57.7 °F 38.0 °F 29.64 in NW 6.0 mph 9.0 mph 48% 0.00 in
12:00 58.2 °F 38.0 °F 29.65 in West 3.0 mph 11.0 mph 48% 0.00 in
12:15 58.9 °F 38.0 °F 29.65 in WNW 5.0 mph 10.0 mph 47% 0.00 in
12:30 58.5 °F 38.0 °F 29.65 in NW 7.0 mph 11.0 mph 47% 0.00 in
12:45 58.7 °F 38.0 °F 29.64 in WNW 5.0 mph 11.0 mph 46% 0.00 in
13:00 59.7 °F 38.0 °F 29.64 in WNW 2.0 mph 11.0 mph 45% 0.00 in
13:15 59.6 °F 38.0 °F 29.64 in WNW 3.0 mph 10.0 mph 45% 0.00 in
13:30 59.4 °F 38.0 °F 29.64 in WNW 3.0 mph 16.0 mph 45% 0.00 in
13:45 60.2 °F 38.0 °F 29.64 in Calm   9.0 mph 44% 0.00 in
14:01 60.3 °F 36.0 °F 29.64 in NNW 6.0 mph 12.0 mph 40% 0.00 in
14:16 60.8 °F 35.0 °F 29.64 in West 4.0 mph 9.0 mph 38% 0.00 in
14:31 60.7 °F 34.0 °F 29.64 in NNW 3.0 mph 14.0 mph 37% 0.00 in
14:46 61.4 °F 35.0 °F 29.64 in NW 1.0 mph 9.0 mph 37% 0.00 in
15:01 61.0 °F 34.0 °F 29.64 in WNW 3.0 mph 12.0 mph 37% 0.00 in
15:16 61.0 °F 35.0 °F 29.64 in NW 4.0 mph 9.0 mph 38% 0.00 in
15:31 60.4 °F 32.0 °F 29.65 in NW 9.0 mph 10.0 mph 35% 0.00 in
15:46 59.5 °F 32.0 °F 29.65 in WNW 4.0 mph 14.0 mph 36% 0.00 in
19:37 54.6 °F 32.0 °F 29.71 in WNW 4.0 mph 12.0 mph 42% 0.00 in
19:46 54.4 °F 32.0 °F 29.71 in NW 4.0 mph 7.0 mph 43% 0.00 in
20:01 54.1 °F 32.0 °F 29.71 in WNW 5.0 mph 8.0 mph 43% 0.00 in
20:16 53.8 °F 32.0 °F 29.72 in NW 1.0 mph 7.0 mph 44% 0.00 in
Compliments of Weather Underground

6 Visitors online right now
Max visitors today: 16 at 07:24 am EDT
This month: 29 at 10-02-2014 07:29 am EDT
This year: 33 at 09-23-2014 08:38 pm EDT
All time: 104 at 01-04-2012 03:34 am EST
See Who is Online